Fairbank, Arizona
Current Conditions -  °F | °C
As of 4:54 PM on Friday 19 Dec 2014 (Local Time) from KOLS Reporting Station
Clear Clear  
Wind Chill: 55°   Ceiling: Unl
Heat Index: 55°   Visibility: 10mi
Dew Point: 35°   Wind: 8mph
Humidity: 47%   Direction: 270°W
Pressure: 30.09"   Gusts: NA
Location:  31.4355°N, 110.967°W
Report Text: KOLS 192354Z AUTO 27007KT 10SM CLR 13/02 A3009 RMK AO2 SLP169 T01280017 10144 20056 55005
Loading
Personal Weather Stations






























Interactive Weather Map New forecast layout! Learn more

10-Day Weather Forecast

Advertisements
Track Severe Weather on mobile